Terminal Aerodrome Forecast
Issued by NWS Wilmington, OH

Current Version | Previous Version | Graphics & Text | Print | Product List | Glossary On
Versions: 1 2 3 4 5 6 7 8 9 10 11 12 13 14 15 16 17 18 19 20 21
000
FTUS41 KILN 251800 AAA
TAFDAY
TAF AMD
KDAY 251832Z 2519/2618 08010G20KT 3SM -SHRA BR OVC012
     FM252100 07010G20KT 4SM -SHRA BR SCT009 OVC012
     FM260000 05013KT P6SM SCT009 OVC012
     FM260500 04013KT P6SM BKN040
     FM261300 01013KT P6SM FEW040=

USA.gov is the U.S. government's official web portal to all federal, state and local government web resources and services.